Denver, CO (80212)

17:31 MDT le 29 août 2015 (GMT -0600)
West Highlands | | Change Station
CLOSE
Current Station
Stations météorologiques personnelles
Location: Denver, CO
Altitude: 5482 ft
Stations météo à proximité

Alt. 5482 ft 39.76 °N, 105.05 °W | Updated 7 minutes ago

Ciel dégagé
Ciel dégagé
89.2 ° F
Paraît 86 ° F
N
3.7
Vent Variable Vent de ESE

Aujourd'hui
Haut(e) -- | Bas -- ° F
--% Risque de précip.
Hier
Haut(e) -- | Bas -- ° F
Precip. -- pouce
6:25 AM 7:36 PM
Pleine lune, 100% visible
Pression 29.96 pouce
Visibilité 10.0 Miles terrestres
Nuages Peu 9000 ft
Peu 21000 ft
indice de chaleur 86 ° F
Point de rosée 42 ° F
Humidité 19%
Précipitations 0.00 pouce
Profondeur de la couche neigeuse Non disponible.
UV 3 sur 12
Pollen 10.70 sur 12
Qualité de l'air Non disponible.
Flu Activity Non disponible.
METAR KAPA 292253Z 18012KT 10SM FEW090 FEW210 29/07 A3017 RMK AO2 SLP144 FU T02940072
Pression 29.96 pouce
Visibilité 10.0 Miles terrestres
Nuages Peu 9000 ft
Peu 21000 ft
indice de chaleur 86 ° F
Point de rosée 42 ° F
Humidité 19%
Précipitations 0.00 pouce
Profondeur de la couche neigeuse Non disponible.
UV 3 sur 12
Pollen 10.70 sur 12
Qualité de l'air Non disponible.
Flu Activity Non disponible.
METAR KAPA 292253Z 18012KT 10SM FEW090 FEW210 29/07 A3017 RMK AO2 SLP144 FU T02940072

10-Day Weather Forecast

×

Almanac

Astronomie

Aug. 29, 2015 Lever Coucher
Temps réel
Crépuscule civil
Crépuscule nautique
Crépuscule astronomique
Lune
Durée de lumière visible
Longueur du jour
Tomorrow will be .
, % of the Moon is Illuminated

Extrêmes aujourd'hui

State Highs State Lows

Community

WunderPhotos

Upload Photos

1,850,783 Photos téléchargées !

WunderBlogs® & News

Nearby

Qualité de l'air

  Qualité de l'air Indice de la qualité de l'air Polluant
Not available.

Épaisseur de neige

Station Depth Altitude

Activité sismique

Ville Distance Mag. Time & Date
Minimum magnitude displayed is 2.5.

Températures des eaux côtières

Lieu Température

Stations

Stations météo à proximité

Emplacement de la station Température Refroidissement éolien Point de rosée Humidité Vent Precip. Alt. Mise à jour Type